Time;durP1;ratioP1;P1;durP2;ratioP2;P2;SDS_P1;SDS_P2;PMS_P1;PMS_P2;Temp;Humidity;BMP_temperature;BMP_pressure;BME280_temperature;BME280_humidity;BME280_pressure;Samples;Min_cycle;Max_cycle;Signal;HPM_P1;HPM_P2
2023/05/08 00:00:26;;;;;;;;;2.33;2.33;;;;;25.50;42.28;102101.78;5075495;27;45354;-75
2023/05/08 00:02:51;;;;;;;;;0.67;0.67;;;;;25.50;41.81;102101.78;5074977;27;47024;-75
2023/05/08 00:05:17;;;;;;;;;3.00;1.33;;;;;25.54;42.32;102111.09;5057288;28;45367;-75
2023/05/08 00:07:42;;;;;;;;;2.00;2.00;;;;;25.46;41.67;102103.13;5078863;27;45670;-75
2023/05/08 00:10:08;;;;;;;;;4.00;2.33;;;;;25.55;42.32;102111.94;5078866;27;45527;-75
2023/05/08 00:12:35;;;;;;;;;1.33;1.33;;;;;25.49;42.19;102108.97;5078843;27;46259;-75
2023/05/08 00:15:00;;;;;;;;;5.00;3.00;;;;;25.55;41.84;102117.25;5078765;28;45503;-75
2023/05/08 00:17:26;;;;;;;;;3.00;2.33;;;;;25.53;41.90;102114.75;5078663;27;45348;-74
2023/05/08 00:19:51;;;;;;;;;2.00;2.00;;;;;25.52;41.97;102119.28;5078721;28;45502;-75
2023/05/08 00:22:18;;;;;;;;;3.67;3.33;;;;;25.50;41.90;102113.25;5078656;27;46105;-75
2023/05/08 00:24:43;;;;;;;;;2.00;2.00;;;;;25.48;41.91;102115.28;5078848;27;45363;-74
2023/05/08 00:27:09;;;;;;;;;3.00;2.00;;;;;25.44;42.18;102105.13;5079077;27;45276;-75
2023/05/08 00:29:34;;;;;;;;;1.00;1.00;;;;;25.32;41.96;102092.19;5078730;28;45577;-75
2023/05/08 00:32:00;;;;;;;;;5.00;2.67;;;;;25.36;41.86;102098.84;5078022;28;46361;-75
2023/05/08 00:34:25;;;;;;;;;2.67;2.67;;;;;25.38;42.29;102096.84;5078347;27;45400;-75
2023/05/08 00:36:51;;;;;;;;;3.33;1.67;;;;;25.45;41.97;102109.47;5078435;27;45280;-74
2023/05/08 00:39:17;;;;;;;;;2.00;2.00;;;;;25.44;41.94;102105.13;5078291;27;45365;-74
2023/05/08 00:41:42;;;;;;;;;5.00;3.00;;;;;25.43;42.10;102109.63;5078439;27;47069;-75
2023/05/08 00:44:07;;;;;;;;;2.00;2.00;;;;;25.34;41.63;102094.69;5078366;28;45456;-75
2023/05/08 00:46:34;;;;;;;;;1.67;1.67;;;;;25.43;41.56;102108.78;5078242;28;45285;-75
2023/05/08 00:48:59;;;;;;;;;0.67;0.67;;;;;25.43;41.73;102108.78;5078515;27;45380;-74
2023/05/08 00:51:25;;;;;;;;;3.00;3.00;;;;;25.43;41.74;102111.47;5077967;27;47124;-75
2023/05/08 00:53:51;;;;;;;;;1.33;1.33;;;;;25.38;41.63;102096.84;5078278;27;45442;-74
2023/05/08 00:56:19;;;;;;;;;2.00;2.00;;;;;25.43;41.70;102112.28;5078177;27;45299;-74
2023/05/08 00:58:46;;;;;;;;;2.00;2.00;;;;;25.29;41.68;102092.56;5078266;27;45395;-75
2023/05/08 01:01:12;;;;;;;;;2.00;1.33;;;;;25.44;41.93;102111.31;5077644;28;47221;-74
2023/05/08 01:03:38;;;;;;;;;4.00;4.00;;;;;25.36;41.74;102096.19;5078031;27;45779;-74
2023/05/08 01:06:05;;;;;;;;;2.00;2.00;;;;;25.46;41.72;102106.63;5078293;28;45397;-74
2023/05/08 01:08:31;;;;;;;;;1.00;1.00;;;;;25.43;41.78;102101.63;5078101;28;45420;-74
2023/05/08 01:11:05;;;;;;;;;2.00;2.00;;;;;25.47;41.64;102102.97;5077680;27;46227;-75
2023/05/08 01:13:51;;;;;;;;;2.67;2.67;;;;;25.42;41.75;102100.00;5077933;27;45299;-75
2023/05/08 01:16:26;;;;;;;;;1.67;1.67;;;;;25.47;41.43;102089.66;5077535;28;45276;-75
2023/05/08 01:19:21;;;;;;;;;3.00;3.00;;;;;25.47;41.51;102091.47;5076549;28;45465;-75
2023/05/08 01:22:03;;;;;;;;;2.33;1.67;;;;;25.43;41.51;102082.16;4975512;28;45384;-74
2023/05/08 01:25:01;;;;;;;;;1.67;1.67;;;;;25.43;41.63;102087.47;4975784;28;45398;-74
2023/05/08 01:27:52;;;;;;;;;2.67;2.67;;;;;25.41;41.73;102090.34;4974115;28;46335;-76
2023/05/08 01:30:48;;;;;;;;;2.00;2.00;;;;;25.39;41.89;102081.69;4975261;28;45332;-74
2023/05/08 01:33:21;;;;;;;;;3.00;2.00;;;;;25.38;41.53;102083.50;4975505;28;45542;-75
2023/05/08 01:35:53;;;;;;;;;0.33;0.00;;;;;25.39;41.60;102081.69;4975503;28;45442;-75
2023/05/08 01:38:29;;;;;;;;;1.33;1.33;;;;;25.38;41.79;102072.03;4975320;28;45584;-75
2023/05/08 01:41:17;;;;;;;;;1.33;1.33;;;;;24.99;41.77;102013.22;4975464;28;45399;-75
2023/05/08 01:44:05;;;;;;;;;1.67;1.67;;;;;25.07;41.63;102023.88;4974980;28;46135;-75
2023/05/08 01:46:33;;;;;;;;;3.67;2.00;;;;;25.37;41.57;102070.38;4975302;28;45406;-74
2023/05/08 01:49:00;;;;;;;;;6.00;4.33;;;;;25.34;41.59;102060.06;4975360;28;45279;-74
2023/05/08 01:51:32;;;;;;;;;2.00;2.00;;;;;25.36;41.60;102066.03;4975201;28;45425;-74
2023/05/08 01:54:00;;;;;;;;;2.33;2.33;;;;;25.25;41.83;102046.78;4975196;28;47216;-75
2023/05/08 01:56:28;;;;;;;;;1.67;1.67;;;;;25.09;41.14;102021.03;4975288;28;45482;-75
2023/05/08 01:58:56;;;;;;;;;3.00;2.67;;;;;25.33;41.63;102053.06;5033661;28;45356;-75
2023/05/08 02:01:24;;;;;;;;;2.00;2.00;;;;;25.27;41.72;102039.44;5077347;28;45313;-75
2023/05/08 02:03:51;;;;;;;;;2.00;2.00;;;;;25.32;41.55;102038.09;5077027;28;46228;-75
2023/05/08 02:06:20;;;;;;;;;2.33;2.33;;;;;25.39;41.31;102050.56;5077179;27;45350;-75
2023/05/08 02:08:46;;;;;;;;;3.00;2.67;;;;;25.39;41.42;102045.22;5077121;28;45371;-75
2023/05/08 02:11:13;;;;;;;;;2.00;2.00;;;;;25.27;41.61;102039.44;5077004;28;45304;-75
2023/05/08 02:13:42;;;;;;;;;4.67;4.67;;;;;25.34;41.43;102042.25;5076637;28;47160;-74
2023/05/08 02:16:10;;;;;;;;;2.67;2.67;;;;;25.42;41.42;102049.38;5076813;27;45390;-74
2023/05/08 02:18:38;;;;;;;;;3.33;2.33;;;;;25.41;41.39;102053.03;5077070;28;45339;-75
2023/05/08 02:21:05;;;;;;;;;3.00;3.00;;;;;25.30;41.01;102038.25;5076819;28;45305;-74
2023/05/08 02:23:33;;;;;;;;;3.00;3.00;;;;;25.34;41.46;102042.25;5076696;27;45476;-74
2023/05/08 02:26:01;;;;;;;;;3.00;3.00;;;;;25.35;41.17;102048.38;5076758;28;45425;-74
2023/05/08 02:28:28;;;;;;;;;2.33;2.33;;;;;25.29;41.56;102040.09;5075917;28;45317;-74
2023/05/08 02:30:56;;;;;;;;;2.00;2.00;;;;;25.36;41.21;102050.91;5076849;27;45388;-74
2023/05/08 02:33:23;;;;;;;;;2.00;2.00;;;;;25.36;41.39;102048.22;5076320;28;45467;-74
2023/05/08 02:35:50;;;;;;;;;3.00;3.00;;;;;25.36;41.30;102045.56;5076468;28;45324;-75
2023/05/08 02:38:19;;;;;;;;;3.33;3.00;;;;;25.26;41.30;102029.81;5076535;27;45273;-74
2023/05/08 02:40:48;;;;;;;;;2.67;2.00;;;;;25.35;41.20;102049.22;5076431;27;45379;-75
2023/05/08 02:43:14;;;;;;;;;3.00;3.00;;;;;25.35;41.32;102051.88;5076003;28;47182;-75
2023/05/08 02:45:46;;;;;;;;;3.00;3.00;;;;;25.35;41.58;102051.06;5076323;28;45435;-75
2023/05/08 02:48:19;;;;;;;;;4.00;3.00;;;;;25.35;41.27;102048.38;5076555;27;45355;-74
2023/05/08 02:50:59;;;;;;;;;4.00;3.67;;;;;25.18;41.56;102016.53;5076509;28;45326;-75
2023/05/08 02:53:33;;;;;;;;;3.67;3.00;;;;;25.20;41.33;102030.50;5076354;28;47085;-74
2023/05/08 02:56:08;;;;;;;;;1.33;1.33;;;;;25.32;41.43;102049.56;5075928;28;45376;-75
2023/05/08 02:58:38;;;;;;;;;2.33;2.33;;;;;25.35;41.35;102046.56;5076377;27;45460;-75
2023/05/08 03:01:12;;;;;;;;;5.33;4.67;;;;;25.34;41.43;102049.41;5076330;28;45343;-73
2023/05/08 03:03:42;;;;;;;;;4.00;4.00;;;;;25.26;41.16;102029.81;5076137;27;46171;-75
2023/05/08 03:06:12;;;;;;;;;2.00;2.00;;;;;25.37;40.94;102046.41;5058012;28;45450;-74
2023/05/08 03:08:40;;;;;;;;;5.00;2.33;;;;;25.39;41.10;102044.38;5075633;28;45312;-74
2023/05/08 03:11:11;;;;;;;;;6.67;5.67;;;;;25.31;41.05;102031.09;5076382;28;45363;-75
2023/05/08 03:13:39;;;;;;;;;4.00;4.00;;;;;25.29;41.50;102026.78;5075907;28;47115;-74
2023/05/08 03:16:10;;;;;;;;;3.00;3.00;;;;;25.40;41.18;102038.88;5076052;27;45482;-75
2023/05/08 03:18:43;;;;;;;;;4.33;4.33;;;;;25.41;41.04;102037.06;5076034;28;45311;-75
2023/05/08 03:21:12;;;;;;;;;5.00;3.67;;;;;25.43;40.75;102036.88;5076072;28;45332;-75
2023/05/08 03:23:39;;;;;;;;;5.00;4.00;;;;;25.42;40.91;102033.41;5075709;28;45480;-75
2023/05/08 03:26:06;;;;;;;;;3.00;3.00;;;;;25.42;41.17;102033.41;5075686;28;45336;-75
2023/05/08 03:28:35;;;;;;;;;4.00;2.67;;;;;25.45;41.14;102040.22;5075875;28;45515;-75
2023/05/08 03:31:03;;;;;;;;;3.33;2.33;;;;;25.44;41.08;102035.88;5075867;27;45471;-75
2023/05/08 03:33:31;;;;;;;;;6.00;6.00;;;;;25.45;41.20;102041.00;5054034;28;46388;-74
2023/05/08 03:35:56;;;;;;;;;4.00;3.67;;;;;25.46;40.97;102031.19;5055547;28;45518;-74
2023/05/08 03:38:22;;;;;;;;;5.67;3.00;;;;;25.46;40.81;102033.84;5069322;27;45433;-75
2023/05/08 03:40:48;;;;;;;;;4.00;4.00;;;;;25.46;40.82;102040.03;5076002;28;45344;-74
2023/05/08 03:43:15;;;;;;;;;2.67;2.67;;;;;25.40;40.66;102032.72;5061032;28;47489;-75
2023/05/08 03:45:40;;;;;;;;;4.00;3.33;;;;;25.33;40.78;102021.09;5079252;28;45488;-74
2023/05/08 03:48:08;;;;;;;;;4.00;4.00;;;;;25.46;40.82;102058.66;5079253;28;45735;-75
2023/05/08 03:50:36;;;;;;;;;3.00;3.00;;;;;25.46;40.83;102061.34;5079383;28;45535;-75
2023/05/08 03:53:02;;;;;;;;;6.00;3.00;;;;;25.43;40.68;102059.00;5079014;27;45466;-75
2023/05/08 03:55:29;;;;;;;;;5.00;4.00;;;;;25.19;40.78;102028.81;5078714;28;45336;-74
2023/05/08 03:58:00;;;;;;;;;8.00;6.00;;;;;25.23;41.18;102037.31;5079357;28;45331;-74
2023/05/08 04:00:56;;;;;;;;;5.67;4.33;;;;;25.38;40.78;102062.22;5079039;27;45610;-75
2023/05/08 04:03:26;;;;;;;;;7.33;5.67;;;;;25.36;40.87;102066.88;5073747;28;46493;-75
2023/05/08 04:06:27;;;;;;;;;5.67;5.67;;;;;25.34;40.89;102062.72;5060833;28;45733;-74
2023/05/08 04:09:19;;;;;;;;;11.67;8.00;;;;;25.36;40.96;102060.72;4976370;28;45486;-75
2023/05/08 04:12:03;;;;;;;;;5.00;4.67;;;;;25.35;41.08;102059.03;4976760;28;45428;-75
2023/05/08 04:14:41;;;;;;;;;4.33;4.33;;;;;25.35;40.80;102053.72;4976612;28;47491;-75
2023/05/08 04:17:10;;;;;;;;;5.67;4.00;;;;;25.24;40.89;102037.13;4976742;28;45521;-75
2023/05/08 04:19:45;;;;;;;;;5.33;5.00;;;;;25.27;40.70;102033.28;4976448;28;45391;-75
2023/05/08 04:22:11;;;;;;;;;7.33;5.67;;;;;25.34;41.00;102046.75;4976758;28;45525;-75
2023/05/08 04:24:43;;;;;;;;;4.00;4.00;;;;;25.17;40.98;102022.84;4976323;28;46235;-74
2023/05/08 04:27:09;;;;;;;;;6.33;6.00;;;;;25.33;41.28;102047.75;4976526;28;45494;-75
2023/05/08 04:29:35;;;;;;;;;6.67;4.67;;;;;25.33;41.00;102056.56;4976632;28;45347;-74
2023/05/08 04:32:04;;;;;;;;;7.00;5.00;;;;;25.33;41.00;102058.41;4976430;28;45509;-74
2023/05/08 04:34:30;;;;;;;;;6.33;5.00;;;;;25.32;40.88;102057.56;4976243;28;46416;-76
2023/05/08 04:36:56;;;;;;;;;5.33;4.67;;;;;25.26;41.05;102051.13;4976093;28;45446;-74
2023/05/08 04:39:21;;;;;;;;;5.00;3.33;;;;;25.21;41.20;102036.66;4975884;28;45627;-76
2023/05/08 04:41:47;;;;;;;;;8.33;6.00;;;;;25.31;40.91;102058.56;4976684;28;45438;-74
2023/05/08 04:44:13;;;;;;;;;5.00;5.00;;;;;25.28;40.98;102056.25;5018431;28;46191;-74
2023/05/08 04:46:38;;;;;;;;;8.00;7.00;;;;;25.33;40.89;102061.06;5078307;27;45414;-75
2023/05/08 04:49:03;;;;;;;;;7.67;7.00;;;;;25.35;41.06;102061.72;5078500;27;45418;-75
2023/05/08 04:51:30;;;;;;;;;9.67;7.00;;;;;25.36;41.18;102061.56;5078058;27;45519;-75
2023/05/08 04:53:55;;;;;;;;;5.00;5.00;;;;;25.28;41.10;102051.75;5077986;27;47047;-75
2023/05/08 04:56:21;;;;;;;;;8.33;7.33;;;;;25.38;40.78;102061.38;5078050;27;45337;-75
2023/05/08 04:58:46;;;;;;;;;7.00;7.00;;;;;25.13;40.59;102021.53;5078343;28;45234;-75
2023/05/08 05:01:11;;;;;;;;;6.67;6.00;;;;;25.39;40.58;102065.72;5078221;27;45452;-75
2023/05/08 05:03:37;;;;;;;;;6.00;5.33;;;;;25.33;40.98;102048.56;5078027;27;45379;-75
2023/05/08 05:06:02;;;;;;;;;6.00;6.00;;;;;25.14;40.36;102016.03;5078078;27;45241;-74
2023/05/08 05:08:28;;;;;;;;;6.00;6.00;;;;;25.40;40.50;102060.19;5077808;28;45290;-75
2023/05/08 05:10:53;;;;;;;;;8.00;8.00;;;;;25.40;40.74;102056.69;5077981;27;45221;-75
2023/05/08 05:13:19;;;;;;;;;6.33;5.00;;;;;25.40;40.54;102062.00;5077952;27;46004;-74
2023/05/08 05:15:44;;;;;;;;;7.00;6.33;;;;;25.32;40.61;102051.44;5077882;28;45471;-74
2023/05/08 05:18:10;;;;;;;;;11.33;11.00;;;;;25.35;40.75;102057.22;5078021;28;45316;-75
2023/05/08 05:20:36;;;;;;;;;6.00;6.00;;;;;25.25;40.63;102045.94;5077944;27;45407;-75
2023/05/08 05:23:01;;;;;;;;;6.33;6.00;;;;;25.34;40.69;102062.72;5077429;27;46183;-75
2023/05/08 05:25:27;;;;;;;;;8.33;7.33;;;;;25.34;40.67;102074.22;5077804;28;45356;-74
2023/05/08 05:27:52;;;;;;;;;6.00;6.00;;;;;25.34;40.84;102079.56;5077846;27;45406;-75
2023/05/08 05:30:18;;;;;;;;;5.67;4.33;;;;;25.29;40.77;102068.59;5077771;27;45524;-75
2023/05/08 05:32:43;;;;;;;;;8.00;8.00;;;;;25.30;40.70;102072.88;5077478;28;46217;-74
2023/05/08 05:35:09;;;;;;;;;8.00;6.33;;;;;25.28;41.02;102070.41;5077559;27;45289;-76
2023/05/08 05:37:35;;;;;;;;;7.67;7.67;;;;;25.30;40.97;102083.53;5077375;27;45459;-75
2023/05/08 05:40:00;;;;;;;;;7.00;6.00;;;;;25.25;40.66;102070.75;5077529;27;45490;-73
2023/05/08 05:42:26;;;;;;;;;5.67;5.67;;;;;25.32;40.59;102089.53;5077453;28;45327;-75
2023/05/08 05:44:51;;;;;;;;;8.00;6.33;;;;;25.30;40.84;102080.88;5077865;27;45344;-75
2023/05/08 05:47:17;;;;;;;;;6.67;6.00;;;;;25.31;40.72;102090.53;5077700;27;45266;-75
2023/05/08 05:49:45;;;;;;;;;7.67;5.00;;;;;25.31;40.68;102081.72;5077488;28;45264;-74
2023/05/08 05:52:11;;;;;;;;;8.67;5.00;;;;;25.31;40.63;102079.88;5076849;27;46283;-75
2023/05/08 05:54:36;;;;;;;;;6.00;5.00;;;;;25.34;40.59;102086.72;5077213;28;45499;-75
2023/05/08 05:57:02;;;;;;;;;9.00;9.00;;;;;25.28;40.85;102074.91;5077395;27;45551;-75
2023/05/08 05:59:27;;;;;;;;;6.33;6.33;;;;;25.32;40.67;102081.53;5077429;28;45427;-74
2023/05/08 06:01:53;;;;;;;;;6.00;6.00;;;;;25.09;40.77;102047.66;5077139;27;46081;-76
2023/05/08 06:04:18;;;;;;;;;9.00;8.00;;;;;25.21;40.89;102065.94;5076336;28;45467;-75
2023/05/08 06:06:43;;;;;;;;;8.00;7.33;;;;;25.37;40.54;102091.69;5076926;27;45400;-75
2023/05/08 06:09:09;;;;;;;;;6.67;6.67;;;;;25.33;40.66;102085.03;5077066;28;45452;-75
2023/05/08 06:11:34;;;;;;;;;8.67;8.00;;;;;25.38;40.38;102085.34;5076720;27;46894;-74
2023/05/08 06:13:59;;;;;;;;;8.33;7.00;;;;;25.31;40.47;102084.38;5077150;28;45482;-75
2023/05/08 06:16:25;;;;;;;;;7.67;7.00;;;;;25.29;40.63;102088.03;5077130;27;45478;-75
2023/05/08 06:18:50;;;;;;;;;9.00;9.00;;;;;25.34;40.53;102102.69;5077042;28;45316;-74
2023/05/08 06:21:16;;;;;;;;;12.00;6.33;;;;;25.31;40.71;102097.69;5057959;28;48296;-74
2023/05/08 06:23:42;;;;;;;;;9.67;8.33;;;;;25.31;40.61;102100.34;5076840;28;45368;-74
2023/05/08 06:26:07;;;;;;;;;9.33;9.33;;;;;25.30;40.65;102099.53;5076912;28;45356;-74
2023/05/08 06:28:33;;;;;;;;;6.00;6.00;;;;;25.28;40.69;102102.38;5076888;27;45337;-74
2023/05/08 06:30:58;;;;;;;;;6.33;6.00;;;;;25.21;40.81;102090.75;5076542;28;45320;-74
2023/05/08 06:33:23;;;;;;;;;7.67;7.00;;;;;25.27;40.83;102106.03;5076202;28;45439;-76
2023/05/08 06:35:49;;;;;;;;;6.33;6.33;;;;;25.24;40.39;102103.69;5076734;27;45337;-75
2023/05/08 06:38:15;;;;;;;;;8.67;6.67;;;;;25.17;40.83;102090.25;5076698;27;45301;-74
2023/05/08 06:40:42;;;;;;;;;11.00;7.67;;;;;25.24;40.78;102101.03;5076263;28;46082;-75
2023/05/08 06:43:07;;;;;;;;;16.33;8.00;;;;;25.24;40.73;102094.91;5076528;28;45459;-75
2023/05/08 06:45:33;;;;;;;;;8.67;7.33;;;;;25.25;40.65;102097.38;5076439;28;45367;-74
2023/05/08 06:47:58;;;;;;;;;5.67;5.67;;;;;25.22;40.66;102087.06;5076055;27;45407;-73
2023/05/08 06:50:23;;;;;;;;;9.33;6.33;;;;;25.20;40.46;102086.41;5076319;27;46178;-73
2023/05/08 06:52:50;;;;;;;;;9.33;7.00;;;;;25.14;40.33;102071.94;5076238;27;45379;-76
2023/05/08 06:55:15;;;;;;;;;11.00;8.00;;;;;25.18;40.36;102081.28;5076056;28;45411;-73
2023/05/08 06:57:40;;;;;;;;;5.00;5.00;;;;;25.30;40.63;102099.53;5076200;27;45416;-75
2023/05/08 07:00:06;;;;;;;;;11.00;8.00;;;;;25.25;40.88;102085.88;5076248;28;46094;-74
2023/05/08 07:02:32;;;;;;;;;7.00;7.00;;;;;25.26;40.64;102085.75;5075961;27;45338;-74
2023/05/08 07:04:57;;;;;;;;;8.00;6.67;;;;;25.29;40.48;102087.22;5076129;28;45341;-73
2023/05/08 07:07:22;;;;;;;;;8.33;6.33;;;;;25.41;40.35;102098.31;5076503;28;45201;-74
2023/05/08 07:09:48;;;;;;;;;8.67;8.00;;;;;25.42;40.53;102092.00;5076080;28;46149;-75
2023/05/08 07:12:15;;;;;;;;;7.67;7.00;;;;;25.38;40.42;102088.00;5075889;27;45272;-74
2023/05/08 07:14:41;;;;;;;;;9.00;9.00;;;;;25.47;40.56;102104.81;5076215;28;45399;-73
2023/05/08 07:17:06;;;;;;;;;7.00;6.00;;;;;25.40;40.57;102100.16;5075769;28;45531;-74
2023/05/08 07:19:35;;;;;;;;;8.00;8.00;;;;;25.37;40.47;102094.34;5075894;28;45501;-76
2023/05/08 07:22:00;;;;;;;;;7.67;7.00;;;;;25.47;40.51;102107.47;5075968;27;45359;-74
2023/05/08 07:24:25;;;;;;;;;13.33;9.67;;;;;25.15;38.59;102065.63;5057834;27;45527;-77
2023/05/08 07:26:51;;;;;;;;;12.50;12.00;;;;;25.21;38.29;102103.22;5076225;28;45305;-77
2023/05/08 07:29:16;;;;;;;;;12.25;11.50;;;;;24.91;37.78;102091.28;5075613;27;47031;-77
2023/05/08 07:31:41;;;;;;;;;13.33;11.00;;;;;24.81;37.73;102112.78;5075260;28;45430;-77
2023/05/08 07:34:07;;;;;;;;;13.50;12.25;;;;;24.63;37.88;102113.78;5075928;28;45421;-79
2023/05/08 07:36:32;;;;;;;;;12.00;9.67;;;;;24.48;38.17;102110.13;5075902;28;45446;-79
2023/05/08 07:38:58;;;;;;;;;12.67;10.33;;;;;24.31;38.24;102111.94;5075269;27;46205;-79
2023/05/08 07:41:25;;;;;;;;;8.33;8.33;;;;;23.88;38.29;102086.25;5075531;28;45447;-78
2023/05/08 07:43:50;;;;;;;;;8.33;8.33;;;;;23.94;38.38;102117.53;5075633;27;45379;-79
2023/05/08 07:46:19;;;;;;;;;9.33;8.33;;;;;23.77;38.62;102113.97;5075105;27;45343;-78
2023/05/08 07:48:45;;;;;;;;;10.00;7.00;;;;;23.70;38.61;102117.28;5075840;28;47227;-78
2023/05/08 07:51:10;;;;;;;;;11.33;7.33;;;;;23.59;38.70;102121.06;5075362;28;45243;-79
2023/05/08 07:53:36;;;;;;;;;8.67;7.67;;;;;23.40;38.47;102106.16;5075840;27;45348;-79
2023/05/08 07:56:01;;;;;;;;;7.67;7.00;;;;;23.40;38.60;102127.41;5075806;27;45380;-79
2023/05/08 07:58:26;;;;;;;;;8.75;8.00;;;;;23.32;38.80;102116.72;5074918;28;46283;-79
2023/05/08 08:00:52;;;;;;;;;12.67;10.00;;;;;23.36;39.12;102126.06;5074839;28;45483;-79
2023/05/08 08:03:18;;;;;;;;;9.33;7.33;;;;;23.18;39.25;102106.56;5075694;28;45433;-78
2023/05/08 08:05:43;;;;;;;;;9.25;7.75;;;;;23.28;38.82;102118.88;5075679;27;45305;-75
2023/05/08 08:08:09;;;;;;;;;8.33;7.67;;;;;23.26;39.15;102116.38;5075338;28;45207;-76
2023/05/08 08:10:34;;;;;;;;;8.00;8.00;;;;;23.39;39.00;102121.25;5075188;28;45167;-75
2023/05/08 08:13:00;;;;;;;;;8.00;6.00;;;;;23.46;39.14;102116.16;5075397;27;45370;-75
2023/05/08 08:15:27;;;;;;;;;8.33;7.33;;;;;23.43;39.53;102100.53;5074864;28;45439;-75
2023/05/08 08:17:53;;;;;;;;;9.33;9.00;;;;;23.50;38.79;102100.75;5074978;28;46423;-76
2023/05/08 08:20:18;;;;;;;;;7.00;5.00;;;;;23.67;39.48;102111.44;5074996;27;45499;-76
2023/05/08 08:22:44;;;;;;;;;12.33;11.33;;;;;23.66;39.16;102091.16;5075291;28;45396;-75
2023/05/08 08:25:09;;;;;;;;;9.25;8.00;;;;;23.62;39.31;102074.75;5075252;27;45428;-78
2023/05/08 08:27:34;;;;;;;;;10.00;8.33;;;;;23.80;38.77;102089.72;5076523;28;46409;-75
2023/05/08 08:30:00;;;;;;;;;11.67;7.67;;;;;23.85;39.10;102092.72;5078312;27;45408;-75
2023/05/08 08:32:25;;;;;;;;;6.00;5.67;;;;;24.01;38.92;102089.28;5078626;27;45413;-75
2023/05/08 08:34:50;;;;;;;;;7.33;6.33;;;;;24.13;39.32;102086.28;5078548;27;45515;-74
2023/05/08 08:37:16;;;;;;;;;5.00;4.00;;;;;24.28;39.25;102095.31;5078579;27;46153;-73
2023/05/08 08:39:41;;;;;;;;;5.00;2.67;;;;;24.37;39.45;102084.69;5078257;27;45261;-73
2023/05/08 08:42:07;;;;;;;;;5.33;4.33;;;;;24.53;39.32;102099.81;5078459;27;45440;-74
2023/05/08 08:44:32;;;;;;;;;6.00;5.00;;;;;24.32;39.10;102052.44;5078521;28;45379;-85
2023/05/08 08:47:00;;;;;;;;;7.00;4.00;;;;;24.70;38.85;102100.63;5076831;27;47384;-74
2023/05/08 08:49:32;;;;;;;;;6.33;5.33;;;;;24.80;38.90;102105.78;5077965;27;45449;-74
2023/05/08 08:52:02;;;;;;;;;4.33;3.67;;;;;24.91;38.86;102106.41;5077956;28;45426;-74
2023/05/08 08:54:30;;;;;;;;;7.00;5.33;;;;;24.90;38.77;102097.63;5077995;28;45371;-74
2023/05/08 08:57:00;;;;;;;;;3.00;2.33;;;;;25.03;38.73;102097.09;5077882;28;45367;-76
2023/05/08 08:59:27;;;;;;;;;5.00;4.33;;;;;25.13;39.20;102104.09;5077484;27;45398;-75
2023/05/08 09:01:57;;;;;;;;;4.00;4.00;;;;;25.19;38.57;102108.72;5078308;28;45405;-74
2023/05/08 09:04:26;;;;;;;;;7.00;4.00;;;;;25.23;38.76;102096.72;5077952;28;45597;-75
2023/05/08 09:06:52;;;;;;;;;4.33;4.00;;;;;25.25;38.62;102091.22;5077388;28;46149;-75
2023/05/08 09:09:18;;;;;;;;;6.67;4.00;;;;;25.24;38.63;102085.06;5077211;27;45524;-74
2023/05/08 09:11:45;;;;;;;;;8.00;5.33;;;;;25.34;38.87;102092.03;5076999;28;45465;-74
2023/05/08 09:14:11;;;;;;;;;4.00;4.00;;;;;25.34;38.83;102087.53;5076972;28;45353;-75
2023/05/08 09:16:36;;;;;;;;;4.00;3.00;;;;;25.35;38.68;102078.53;5077122;28;46159;-75
2023/05/08 09:19:02;;;;;;;;;2.33;2.00;;;;;25.30;39.15;102072.88;5077082;28;45411;-75
2023/05/08 09:21:27;;;;;;;;;5.00;5.00;;;;;25.50;39.44;102093.81;5059042;27;45432;-76
2023/05/08 09:24:03;;;;;;;;;3.00;3.00;;;;;25.54;39.25;102091.59;5059112;28;45392;-74
2023/05/08 09:26:33;;;;;;;;;4.33;4.33;;;;;25.43;38.86;102071.50;5070557;28;45309;-75
2023/05/08 09:29:08;;;;;;;;;4.00;4.00;;;;;25.59;38.84;102091.91;5075809;28;45369;-75
2023/05/08 09:31:41;;;;;;;;;5.00;5.00;;;;;25.46;38.94;102069.34;5074113;28;45570;-75
2023/05/08 09:34:08;;;;;;;;;4.33;4.33;;;;;25.63;39.00;102080.72;5074277;27;45438;-75
2023/05/08 09:36:33;;;;;;;;;3.33;3.33;;;;;25.68;39.04;102077.56;5076891;28;46021;-75
2023/05/08 09:39:00;;;;;;;;;5.33;3.67;;;;;25.68;38.74;102079.38;5075132;27;45503;-75
2023/05/08 09:41:26;;;;;;;;;3.00;2.67;;;;;25.73;39.49;102083.22;5076974;28;45286;-75
2023/05/08 09:44:02;;;;;;;;;7.67;4.67;;;;;25.69;39.08;102071.19;5076921;28;45712;-74
2023/05/08 09:46:28;;;;;;;;;3.00;3.00;;;;;25.77;39.29;102080.19;5077256;27;45444;-75
2023/05/08 09:48:56;;;;;;;;;3.00;3.00;;;;;25.77;39.30;102075.69;5077221;28;45249;-74
2023/05/08 09:51:23;;;;;;;;;3.00;3.00;;;;;25.74;39.31;102068.88;5076789;27;45517;-74
2023/05/08 09:53:56;;;;;;;;;6.00;4.00;;;;;25.79;38.98;102072.88;5076500;27;45447;-75
2023/05/08 09:56:35;;;;;;;;;5.00;5.00;;;;;25.80;38.97;102070.00;5074574;27;45383;-79
2023/05/08 09:59:03;;;;;;;;;3.00;3.00;;;;;25.68;39.17;102066.91;5077011;28;45339;-75
2023/05/08 10:01:32;;;;;;;;;3.00;3.00;;;;;25.78;39.11;102079.19;5076643;28;45306;-75
2023/05/08 10:03:58;;;;;;;;;4.00;4.00;;;;;25.68;39.08;102069.56;5076997;27;45578;-74
2023/05/08 10:06:24;;;;;;;;;6.00;6.00;;;;;25.74;38.57;102078.69;5076931;28;46245;-79
2023/05/08 10:09:09;;;;;;;;;6.00;6.00;;;;;25.71;38.88;102071.84;5076866;28;45313;-76
2023/05/08 10:11:34;;;;;;;;;6.00;6.00;;;;;25.66;38.74;102068.06;5076696;27;45397;-79
2023/05/08 10:14:00;;;;;;;;;3.33;3.00;;;;;25.69;38.29;102073.88;5076906;27;46023;-74
2023/05/08 10:16:28;;;;;;;;;5.67;4.33;;;;;25.63;38.54;102064.72;5076806;27;45721;-76
2023/05/08 10:19:00;;;;;;;;;4.00;4.00;;;;;25.61;38.83;102066.75;5076839;28;45214;-74
2023/05/08 10:21:28;;;;;;;;;5.33;5.00;;;;;25.46;38.73;102050.69;5076791;27;45321;-76
2023/05/08 10:23:56;;;;;;;;;3.00;3.00;;;;;25.56;38.76;102069.09;5076769;28;45385;-76
2023/05/08 10:26:29;;;;;;;;;5.33;3.00;;;;;25.51;39.13;102066.13;5076098;28;46389;-75
2023/05/08 10:28:56;;;;;;;;;4.00;4.00;;;;;25.57;38.81;102075.28;5076474;28;45301;-75
2023/05/08 10:31:27;;;;;;;;;2.67;2.67;;;;;25.58;38.81;102060.97;5076542;28;45371;-74
2023/05/08 10:33:55;;;;;;;;;4.00;4.00;;;;;25.56;38.94;102055.78;5076647;28;45383;-71
2023/05/08 10:36:22;;;;;;;;;8.00;5.00;;;;;25.35;38.89;102021.75;5076433;28;46090;-77
2023/05/08 10:38:49;;;;;;;;;1.00;1.00;;;;;25.62;39.01;102057.75;5076281;27;45296;-76
2023/05/08 10:41:14;;;;;;;;;3.00;3.00;;;;;25.56;38.72;102038.97;5076049;28;45360;-75
2023/05/08 10:43:41;;;;;;;;;3.00;2.33;;;;;25.65;39.19;102042.41;5076491;27;45387;-76
2023/05/08 10:46:36;;;;;;;;;3.00;3.00;;;;;25.64;38.98;102033.59;5076389;28;45368;-76
2023/05/08 10:49:15;;;;;;;;;4.00;3.67;;;;;25.61;39.06;102029.44;5075895;27;45588;-75
2023/05/08 10:52:00;;;;;;;;;4.33;3.00;;;;;25.62;39.12;102016.94;5074700;28;45523;-75
2023/05/08 10:54:46;;;;;;;;;3.00;3.00;;;;;25.63;39.00;102014.09;5075916;27;45503;-74
2023/05/08 10:57:11;;;;;;;;;3.00;3.00;;;;;25.54;39.18;101996.50;5076033;28;46162;-74
2023/05/08 10:59:37;;;;;;;;;3.33;3.33;;;;;25.60;39.30;101998.47;5075975;28;45453;-73
2023/05/08 11:02:07;;;;;;;;;2.67;2.67;;;;;25.66;38.88;102002.25;5076480;28;45393;-73
2023/05/08 11:04:33;;;;;;;;;3.00;3.00;;;;;25.65;39.14;101989.94;5076371;27;45639;-73
2023/05/08 11:06:58;;;;;;;;;4.00;3.67;;;;;25.52;39.42;101966.56;5075908;27;47095;-73
2023/05/08 11:09:45;;;;;;;;;4.67;4.67;;;;;25.71;39.29;101991.09;5075618;28;45456;-73
2023/05/08 11:12:25;;;;;;;;;4.33;4.33;;;;;25.73;39.23;101981.06;5076197;27;45431;-73
2023/05/08 11:15:08;;;;;;;;;3.00;2.33;;;;;25.73;39.21;101976.59;5075971;28;45351;-73
2023/05/08 11:17:34;;;;;;;;;2.67;2.67;;;;;25.66;38.95;101970.28;5075723;28;46862;-74
2023/05/08 11:20:04;;;;;;;;;4.33;3.00;;;;;25.73;39.53;101970.41;5075932;27;45452;-74
2023/05/08 11:22:34;;;;;;;;;3.67;3.67;;;;;25.72;39.39;101964.25;5075865;27;45297;-74
2023/05/08 11:25:09;;;;;;;;;5.67;4.00;;;;;25.78;39.10;101961.91;5075586;27;45298;-73
2023/05/08 11:27:49;;;;;;;;;3.00;3.00;;;;;25.77;39.49;101955.72;5075306;28;47294;-74
2023/05/08 11:30:35;;;;;;;;;4.00;3.67;;;;;25.77;39.49;101952.22;5075434;28;45284;-73